sensor_id;sensor_type;location;lat;lon;timestamp;temperature;humidity
20732;DHT22;10527;52.124;5.196;2022-09-29T00:01:08;9.30;99.90
20732;DHT22;10527;52.124;5.196;2022-09-29T00:03:35;9.30;99.90
20732;DHT22;10527;52.124;5.196;2022-09-29T00:06:03;9.30;99.90
20732;DHT22;10527;52.124;5.196;2022-09-29T00:08:36;9.30;99.90
20732;DHT22;10527;52.124;5.196;2022-09-29T00:11:07;9.20;99.90
20732;DHT22;10527;52.124;5.196;2022-09-29T00:13:36;9.10;99.90
20732;DHT22;10527;52.124;5.196;2022-09-29T00:16:10;9.10;99.90
20732;DHT22;10527;52.124;5.196;2022-09-29T00:18:37;9.10;99.90
20732;DHT22;10527;52.124;5.196;2022-09-29T00:21:11;9.10;99.90
20732;DHT22;10527;52.124;5.196;2022-09-29T00:23:59;9.00;99.90
20732;DHT22;10527;52.124;5.196;2022-09-29T00:26:27;9.00;99.90
20732;DHT22;10527;52.124;5.196;2022-09-29T00:28:55;9.00;99.90
20732;DHT22;10527;52.124;5.196;2022-09-29T00:31:29;8.90;99.90
20732;DHT22;10527;52.124;5.196;2022-09-29T00:33:58;8.80;99.90
20732;DHT22;10527;52.124;5.196;2022-09-29T00:36:26;8.90;99.90
20732;DHT22;10527;52.124;5.196;2022-09-29T00:38:56;8.90;99.90
20732;DHT22;10527;52.124;5.196;2022-09-29T00:41:32;8.90;99.90
20732;DHT22;10527;52.124;5.196;2022-09-29T00:46:47;8.80;99.90
20732;DHT22;10527;52.124;5.196;2022-09-29T00:49:30;8.90;99.90
20732;DHT22;10527;52.124;5.196;2022-09-29T00:52:01;8.90;99.90
20732;DHT22;10527;52.124;5.196;2022-09-29T00:54:44;8.80;99.90
20732;DHT22;10527;52.124;5.196;2022-09-29T00:57:15;8.80;99.90
20732;DHT22;10527;52.124;5.196;2022-09-29T00:59:53;8.70;99.90
20732;DHT22;10527;52.124;5.196;2022-09-29T01:02:26;8.70;99.90
20732;DHT22;10527;52.124;5.196;2022-09-29T01:04:55;8.70;99.90
20732;DHT22;10527;52.124;5.196;2022-09-29T01:07:23;8.60;99.90
20732;DHT22;10527;52.124;5.196;2022-09-29T01:09:54;8.60;99.90
20732;DHT22;10527;52.124;5.196;2022-09-29T01:12:22;8.50;99.90
20732;DHT22;10527;52.124;5.196;2022-09-29T01:14:52;8.40;99.90
20732;DHT22;10527;52.124;5.196;2022-09-29T01:17:22;8.30;99.90
20732;DHT22;10527;52.124;5.196;2022-09-29T01:31:13;8.40;99.90
20732;DHT22;10527;52.124;5.196;2022-09-29T01:34:17;8.30;99.90
20732;DHT22;10527;52.124;5.196;2022-09-29T01:40:13;8.40;99.90
20732;DHT22;10527;52.124;5.196;2022-09-29T01:43:04;8.30;99.90
20732;DHT22;10527;52.124;5.196;2022-09-29T01:45:41;8.40;99.90
20732;DHT22;10527;52.124;5.196;2022-09-29T01:48:21;8.30;99.90
20732;DHT22;10527;52.124;5.196;2022-09-29T01:51:16;8.30;99.90
20732;DHT22;10527;52.124;5.196;2022-09-29T01:57:09;8.30;99.90
20732;DHT22;10527;52.124;5.196;2022-09-29T02:00:00;8.30;99.90
20732;DHT22;10527;52.124;5.196;2022-09-29T02:05:52;8.10;99.90
20732;DHT22;10527;52.124;5.196;2022-09-29T02:08:28;8.10;99.90
20732;DHT22;10527;52.124;5.196;2022-09-29T02:11:03;8.00;99.90
20732;DHT22;10527;52.124;5.196;2022-09-29T02:16:42;8.10;99.90
20732;DHT22;10527;52.124;5.196;2022-09-29T02:19:30;8.10;99.90
20732;DHT22;10527;52.124;5.196;2022-09-29T02:22:02;8.00;99.90
20732;DHT22;10527;52.124;5.196;2022-09-29T02:24:29;8.00;99.90
20732;DHT22;10527;52.124;5.196;2022-09-29T02:26:57;8.00;99.90
20732;DHT22;10527;52.124;5.196;2022-09-29T02:29:24;8.00;99.90
20732;DHT22;10527;52.124;5.196;2022-09-29T02:31:54;7.90;99.90
20732;DHT22;10527;52.124;5.196;2022-09-29T02:34:30;7.90;99.90
20732;DHT22;10527;52.124;5.196;2022-09-29T02:43:47;7.90;99.90
20732;DHT22;10527;52.124;5.196;2022-09-29T02:46:52;7.90;99.90
20732;DHT22;10527;52.124;5.196;2022-09-29T02:49:27;7.80;99.90
20732;DHT22;10527;52.124;5.196;2022-09-29T02:52:31;7.70;99.90
20732;DHT22;10527;52.124;5.196;2022-09-29T02:55:37;7.60;99.90
20732;DHT22;10527;52.124;5.196;2022-09-29T02:58:18;7.60;99.90
20732;DHT22;10527;52.124;5.196;2022-09-29T03:00:53;7.60;99.90
20732;DHT22;10527;52.124;5.196;2022-09-29T03:03:20;7.60;99.90
20732;DHT22;10527;52.124;5.196;2022-09-29T03:05:47;7.70;99.90
20732;DHT22;10527;52.124;5.196;2022-09-29T03:08:14;7.70;99.90
20732;DHT22;10527;52.124;5.196;2022-09-29T03:10:40;7.60;99.90
20732;DHT22;10527;52.124;5.196;2022-09-29T03:13:07;7.60;99.90
20732;DHT22;10527;52.124;5.196;2022-09-29T03:15:34;7.60;99.90
20732;DHT22;10527;52.124;5.196;2022-09-29T03:18:01;7.60;99.90
20732;DHT22;10527;52.124;5.196;2022-09-29T03:20:35;7.60;99.90
20732;DHT22;10527;52.124;5.196;2022-09-29T03:23:01;7.60;99.90
20732;DHT22;10527;52.124;5.196;2022-09-29T03:25:28;7.50;99.90
20732;DHT22;10527;52.124;5.196;2022-09-29T03:27:55;7.50;99.90
20732;DHT22;10527;52.124;5.196;2022-09-29T03:30:22;7.50;99.90
20732;DHT22;10527;52.124;5.196;2022-09-29T03:32:50;7.50;99.90
20732;DHT22;10527;52.124;5.196;2022-09-29T03:35:17;7.50;99.90
20732;DHT22;10527;52.124;5.196;2022-09-29T03:37:45;7.40;99.90
20732;DHT22;10527;52.124;5.196;2022-09-29T03:40:11;7.40;99.90
20732;DHT22;10527;52.124;5.196;2022-09-29T03:42:44;7.40;99.90
20732;DHT22;10527;52.124;5.196;2022-09-29T03:45:11;7.20;99.90
20732;DHT22;10527;52.124;5.196;2022-09-29T03:47:38;7.20;99.90
20732;DHT22;10527;52.124;5.196;2022-09-29T03:50:05;7.20;99.90
20732;DHT22;10527;52.124;5.196;2022-09-29T03:52:32;7.30;99.90
20732;DHT22;10527;52.124;5.196;2022-09-29T03:54:59;7.30;99.90
20732;DHT22;10527;52.124;5.196;2022-09-29T03:57:25;7.20;99.90
20732;DHT22;10527;52.124;5.196;2022-09-29T03:59:52;7.20;99.90
20732;DHT22;10527;52.124;5.196;2022-09-29T04:02:19;7.20;99.90
20732;DHT22;10527;52.124;5.196;2022-09-29T04:04:46;7.20;99.90
20732;DHT22;10527;52.124;5.196;2022-09-29T04:07:13;7.20;99.90
20732;DHT22;10527;52.124;5.196;2022-09-29T04:09:40;7.20;99.90
20732;DHT22;10527;52.124;5.196;2022-09-29T04:12:08;7.10;99.90
20732;DHT22;10527;52.124;5.196;2022-09-29T04:14:35;7.10;99.90
20732;DHT22;10527;52.124;5.196;2022-09-29T04:17:02;7.10;99.90
20732;DHT22;10527;52.124;5.196;2022-09-29T04:19:31;7.10;99.90
20732;DHT22;10527;52.124;5.196;2022-09-29T04:21:57;7.20;99.90
20732;DHT22;10527;52.124;5.196;2022-09-29T04:24:24;7.10;99.90
20732;DHT22;10527;52.124;5.196;2022-09-29T04:26:51;7.10;99.90
20732;DHT22;10527;52.124;5.196;2022-09-29T04:29:18;7.10;99.90
20732;DHT22;10527;52.124;5.196;2022-09-29T04:31:45;7.10;99.90
20732;DHT22;10527;52.124;5.196;2022-09-29T04:34:11;7.00;99.90
20732;DHT22;10527;52.124;5.196;2022-09-29T04:36:38;7.00;99.90
20732;DHT22;10527;52.124;5.196;2022-09-29T04:39:06;7.00;99.90
20732;DHT22;10527;52.124;5.196;2022-09-29T04:41:33;6.90;99.90
20732;DHT22;10527;52.124;5.196;2022-09-29T04:44:01;7.00;99.90
20732;DHT22;10527;52.124;5.196;2022-09-29T04:46:29;7.00;99.90
20732;DHT22;10527;52.124;5.196;2022-09-29T04:48:56;6.90;99.90
20732;DHT22;10527;52.124;5.196;2022-09-29T04:51:23;7.00;99.90
20732;DHT22;10527;52.124;5.196;2022-09-29T04:53:50;7.00;99.90
20732;DHT22;10527;52.124;5.196;2022-09-29T04:56:18;7.00;99.90
20732;DHT22;10527;52.124;5.196;2022-09-29T04:58:45;7.00;99.90
20732;DHT22;10527;52.124;5.196;2022-09-29T05:01:12;7.00;99.90
20732;DHT22;10527;52.124;5.196;2022-09-29T05:03:39;6.90;99.90
20732;DHT22;10527;52.124;5.196;2022-09-29T05:06:08;7.00;99.90
20732;DHT22;10527;52.124;5.196;2022-09-29T05:08:35;6.90;99.90
20732;DHT22;10527;52.124;5.196;2022-09-29T05:11:12;6.80;99.90
20732;DHT22;10527;52.124;5.196;2022-09-29T05:13:39;6.70;99.90
20732;DHT22;10527;52.124;5.196;2022-09-29T05:16:06;6.80;99.90
20732;DHT22;10527;52.124;5.196;2022-09-29T05:18:33;6.80;99.90
20732;DHT22;10527;52.124;5.196;2022-09-29T05:21:05;6.70;99.90
20732;DHT22;10527;52.124;5.196;2022-09-29T05:23:54;6.70;99.90
20732;DHT22;10527;52.124;5.196;2022-09-29T05:26:22;6.70;99.90
20732;DHT22;10527;52.124;5.196;2022-09-29T05:28:50;6.70;99.90
20732;DHT22;10527;52.124;5.196;2022-09-29T05:31:17;6.80;99.90
20732;DHT22;10527;52.124;5.196;2022-09-29T05:33:44;6.80;99.90
20732;DHT22;10527;52.124;5.196;2022-09-29T05:36:12;6.80;99.90
20732;DHT22;10527;52.124;5.196;2022-09-29T05:38:39;6.70;99.90
20732;DHT22;10527;52.124;5.196;2022-09-29T05:41:09;6.70;99.90
20732;DHT22;10527;52.124;5.196;2022-09-29T05:43:39;6.80;99.90
20732;DHT22;10527;52.124;5.196;2022-09-29T05:46:08;6.80;99.90
20732;DHT22;10527;52.124;5.196;2022-09-29T05:48:36;6.80;99.90
20732;DHT22;10527;52.124;5.196;2022-09-29T05:51:09;6.80;99.90
20732;DHT22;10527;52.124;5.196;2022-09-29T05:53:41;6.80;99.90
20732;DHT22;10527;52.124;5.196;2022-09-29T05:56:10;6.80;99.90
20732;DHT22;10527;52.124;5.196;2022-09-29T05:58:40;6.80;99.90
20732;DHT22;10527;52.124;5.196;2022-09-29T06:01:12;6.80;99.90
20732;DHT22;10527;52.124;5.196;2022-09-29T06:03:41;6.80;99.90
20732;DHT22;10527;52.124;5.196;2022-09-29T06:06:14;6.90;99.90
20732;DHT22;10527;52.124;5.196;2022-09-29T06:08:43;6.90;99.90
20732;DHT22;10527;52.124;5.196;2022-09-29T06:11:17;6.90;99.90
20732;DHT22;10527;52.124;5.196;2022-09-29T06:13:50;6.90;99.90
20732;DHT22;10527;52.124;5.196;2022-09-29T06:16:20;7.00;99.90
20732;DHT22;10527;52.124;5.196;2022-09-29T06:18:54;6.90;99.90
20732;DHT22;10527;52.124;5.196;2022-09-29T06:21:24;6.90;99.90
20732;DHT22;10527;52.124;5.196;2022-09-29T06:23:56;6.90;99.90
20732;DHT22;10527;52.124;5.196;2022-09-29T06:26:25;6.90;99.90
20732;DHT22;10527;52.124;5.196;2022-09-29T06:28:53;6.90;99.90
20732;DHT22;10527;52.124;5.196;2022-09-29T06:31:25;7.00;99.90
20732;DHT22;10527;52.124;5.196;2022-09-29T06:33:58;7.00;99.90
20732;DHT22;10527;52.124;5.196;2022-09-29T06:36:35;7.00;99.90
20732;DHT22;10527;52.124;5.196;2022-09-29T06:39:32;7.00;99.90
20732;DHT22;10527;52.124;5.196;2022-09-29T06:41:58;7.10;99.90
20732;DHT22;10527;52.124;5.196;2022-09-29T06:44:26;7.10;99.90
20732;DHT22;10527;52.124;5.196;2022-09-29T06:47:00;7.10;99.90
20732;DHT22;10527;52.124;5.196;2022-09-29T06:49:27;7.10;99.90
20732;DHT22;10527;52.124;5.196;2022-09-29T06:51:54;7.10;99.90
20732;DHT22;10527;52.124;5.196;2022-09-29T06:54:22;7.20;99.90
20732;DHT22;10527;52.124;5.196;2022-09-29T06:56:52;7.30;99.90
20732;DHT22;10527;52.124;5.196;2022-09-29T06:59:24;7.30;99.90
20732;DHT22;10527;52.124;5.196;2022-09-29T07:01:51;7.30;99.90
20732;DHT22;10527;52.124;5.196;2022-09-29T07:04:19;7.30;99.90
20732;DHT22;10527;52.124;5.196;2022-09-29T07:06:47;7.40;99.90
20732;DHT22;10527;52.124;5.196;2022-09-29T07:09:15;7.40;99.90
20732;DHT22;10527;52.124;5.196;2022-09-29T07:11:44;7.50;99.90
20732;DHT22;10527;52.124;5.196;2022-09-29T07:14:15;7.40;99.90
20732;DHT22;10527;52.124;5.196;2022-09-29T07:16:46;7.50;99.90
20732;DHT22;10527;52.124;5.196;2022-09-29T07:19:16;7.50;99.90
20732;DHT22;10527;52.124;5.196;2022-09-29T07:21:47;7.50;99.90
20732;DHT22;10527;52.124;5.196;2022-09-29T07:24:22;7.50;99.90
20732;DHT22;10527;52.124;5.196;2022-09-29T07:26:50;7.60;99.90
20732;DHT22;10527;52.124;5.196;2022-09-29T07:29:17;7.60;99.90
20732;DHT22;10527;52.124;5.196;2022-09-29T07:31:44;7.70;99.90
20732;DHT22;10527;52.124;5.196;2022-09-29T07:34:19;7.70;99.90
20732;DHT22;10527;52.124;5.196;2022-09-29T07:36:59;7.70;99.90
20732;DHT22;10527;52.124;5.196;2022-09-29T07:39:26;7.80;99.90
20732;DHT22;10527;52.124;5.196;2022-09-29T07:41:53;7.80;99.90
20732;DHT22;10527;52.124;5.196;2022-09-29T07:44:23;7.90;99.90
20732;DHT22;10527;52.124;5.196;2022-09-29T07:46:49;7.90;99.90
20732;DHT22;10527;52.124;5.196;2022-09-29T07:49:17;8.00;99.90
20732;DHT22;10527;52.124;5.196;2022-09-29T07:51:44;8.10;99.90
20732;DHT22;10527;52.124;5.196;2022-09-29T07:54:10;8.10;99.90
20732;DHT22;10527;52.124;5.196;2022-09-29T07:56:39;8.30;99.90
20732;DHT22;10527;52.124;5.196;2022-09-29T07:59:08;8.40;99.90
20732;DHT22;10527;52.124;5.196;2022-09-29T08:01:42;8.40;99.90
20732;DHT22;10527;52.124;5.196;2022-09-29T08:04:09;8.40;99.90
20732;DHT22;10527;52.124;5.196;2022-09-29T08:06:36;8.50;99.90
20732;DHT22;10527;52.124;5.196;2022-09-29T08:09:03;8.60;99.90
20732;DHT22;10527;52.124;5.196;2022-09-29T08:11:33;8.60;99.90
20732;DHT22;10527;52.124;5.196;2022-09-29T08:14:03;8.70;99.90
20732;DHT22;10527;52.124;5.196;2022-09-29T08:16:42;8.70;99.90
20732;DHT22;10527;52.124;5.196;2022-09-29T08:19:09;8.80;99.90
20732;DHT22;10527;52.124;5.196;2022-09-29T08:21:40;8.80;99.90
20732;DHT22;10527;52.124;5.196;2022-09-29T08:24:12;8.90;99.90
20732;DHT22;10527;52.124;5.196;2022-09-29T08:26:39;9.00;99.90
20732;DHT22;10527;52.124;5.196;2022-09-29T08:29:12;8.90;99.90
20732;DHT22;10527;52.124;5.196;2022-09-29T08:31:43;9.00;99.90
20732;DHT22;10527;52.124;5.196;2022-09-29T08:34:11;9.10;99.90
20732;DHT22;10527;52.124;5.196;2022-09-29T08:36:39;9.20;99.90
20732;DHT22;10527;52.124;5.196;2022-09-29T08:39:08;9.20;99.90
20732;DHT22;10527;52.124;5.196;2022-09-29T08:41:59;9.30;99.90
20732;DHT22;10527;52.124;5.196;2022-09-29T08:44:49;9.50;99.90
20732;DHT22;10527;52.124;5.196;2022-09-29T08:47:38;9.50;99.90
20732;DHT22;10527;52.124;5.196;2022-09-29T08:52:50;9.70;99.90
20732;DHT22;10527;52.124;5.196;2022-09-29T08:58:15;10.00;99.90
20732;DHT22;10527;52.124;5.196;2022-09-29T09:06:27;10.30;99.90
20732;DHT22;10527;52.124;5.196;2022-09-29T09:12:50;10.50;99.90
20732;DHT22;10527;52.124;5.196;2022-09-29T09:26:08;11.10;99.90
20732;DHT22;10527;52.124;5.196;2022-09-29T09:31:53;11.60;99.90
20732;DHT22;10527;52.124;5.196;2022-09-29T09:34:30;11.90;99.90
20732;DHT22;10527;52.124;5.196;2022-09-29T09:37:18;12.10;99.90
20732;DHT22;10527;52.124;5.196;2022-09-29T09:40:03;12.40;99.90
20732;DHT22;10527;52.124;5.196;2022-09-29T09:42:37;12.60;99.90
20732;DHT22;10527;52.124;5.196;2022-09-29T09:45:09;12.70;99.90
20732;DHT22;10527;52.124;5.196;2022-09-29T09:47:49;12.90;99.90
20732;DHT22;10527;52.124;5.196;2022-09-29T09:50:28;13.00;99.90
20732;DHT22;10527;52.124;5.196;2022-09-29T09:53:45;13.20;99.90
20732;DHT22;10527;52.124;5.196;2022-09-29T10:01:57;13.60;99.90
20732;DHT22;10527;52.124;5.196;2022-09-29T10:04:24;13.80;99.90
20732;DHT22;10527;52.124;5.196;2022-09-29T10:06:54;13.70;99.90
20732;DHT22;10527;52.124;5.196;2022-09-29T10:09:22;13.80;99.90
20732;DHT22;10527;52.124;5.196;2022-09-29T10:11:49;14.00;99.90
20732;DHT22;10527;52.124;5.196;2022-09-29T10:14:24;14.10;99.90
20732;DHT22;10527;52.124;5.196;2022-09-29T10:17:06;14.20;99.90
20732;DHT22;10527;52.124;5.196;2022-09-29T10:19:57;14.20;99.90
20732;DHT22;10527;52.124;5.196;2022-09-29T10:22:30;14.20;99.90
20732;DHT22;10527;52.124;5.196;2022-09-29T10:25:16;14.20;99.90
20732;DHT22;10527;52.124;5.196;2022-09-29T10:27:49;14.30;99.90
20732;DHT22;10527;52.124;5.196;2022-09-29T10:30:24;14.40;99.90
20732;DHT22;10527;52.124;5.196;2022-09-29T10:33:01;14.50;99.90
20732;DHT22;10527;52.124;5.196;2022-09-29T10:35:41;14.50;99.90
20732;DHT22;10527;52.124;5.196;2022-09-29T10:38:22;14.70;99.90
20732;DHT22;10527;52.124;5.196;2022-09-29T10:41:05;14.60;99.90
20732;DHT22;10527;52.124;5.196;2022-09-29T10:46:25;14.70;99.90
20732;DHT22;10527;52.124;5.196;2022-09-29T10:49:19;14.70;99.90
20732;DHT22;10527;52.124;5.196;2022-09-29T10:51:59;14.80;99.90
20732;DHT22;10527;52.124;5.196;2022-09-29T10:54:35;15.00;99.90
20732;DHT22;10527;52.124;5.196;2022-09-29T10:57:13;15.10;99.90
20732;DHT22;10527;52.124;5.196;2022-09-29T10:59:46;15.00;99.90
20732;DHT22;10527;52.124;5.196;2022-09-29T11:02:36;15.10;99.90
20732;DHT22;10527;52.124;5.196;2022-09-29T11:05:16;15.10;99.90
20732;DHT22;10527;52.124;5.196;2022-09-29T11:07:49;15.20;99.90
20732;DHT22;10527;52.124;5.196;2022-09-29T11:10:36;15.20;99.90
20732;DHT22;10527;52.124;5.196;2022-09-29T11:16:11;15.20;99.90
20732;DHT22;10527;52.124;5.196;2022-09-29T11:18:50;15.40;99.90
20732;DHT22;10527;52.124;5.196;2022-09-29T11:24:07;15.20;99.90
20732;DHT22;10527;52.124;5.196;2022-09-29T11:27:35;15.00;99.90
20732;DHT22;10527;52.124;5.196;2022-09-29T11:31:04;15.00;99.90
20732;DHT22;10527;52.124;5.196;2022-09-29T11:40:45;15.40;99.90
20732;DHT22;10527;52.124;5.196;2022-09-29T11:43:43;15.50;99.90
20732;DHT22;10527;52.124;5.196;2022-09-29T12:04:40;15.70;99.90
20732;DHT22;10527;52.124;5.196;2022-09-29T12:10:48;16.00;99.90
20732;DHT22;10527;52.124;5.196;2022-09-29T12:14:17;16.10;99.90
20732;DHT22;10527;52.124;5.196;2022-09-29T12:17:01;16.20;99.90
20732;DHT22;10527;52.124;5.196;2022-09-29T12:19:37;16.30;99.90
20732;DHT22;10527;52.124;5.196;2022-09-29T12:22:16;16.30;99.90
20732;DHT22;10527;52.124;5.196;2022-09-29T12:24:49;16.40;99.90
20732;DHT22;10527;52.124;5.196;2022-09-29T12:27:28;16.60;99.90
20732;DHT22;10527;52.124;5.196;2022-09-29T12:30:13;16.60;99.90
20732;DHT22;10527;52.124;5.196;2022-09-29T12:33:12;16.70;99.90
20732;DHT22;10527;52.124;5.196;2022-09-29T12:36:46;16.50;99.90
20732;DHT22;10527;52.124;5.196;2022-09-29T12:45:29;15.60;99.90
20732;DHT22;10527;52.124;5.196;2022-09-29T12:51:34;15.50;99.90
20732;DHT22;10527;52.124;5.196;2022-09-29T12:54:21;15.50;99.90
20732;DHT22;10527;52.124;5.196;2022-09-29T12:57:04;15.60;99.90
20732;DHT22;10527;52.124;5.196;2022-09-29T13:02:34;15.50;99.90
20732;DHT22;10527;52.124;5.196;2022-09-29T13:06:07;15.70;99.90
20732;DHT22;10527;52.124;5.196;2022-09-29T13:29:22;16.20;99.90
20732;DHT22;10527;52.124;5.196;2022-09-29T13:31:55;16.30;99.90
20732;DHT22;10527;52.124;5.196;2022-09-29T13:34:32;16.30;99.90
20732;DHT22;10527;52.124;5.196;2022-09-29T13:37:14;16.40;99.90
20732;DHT22;10527;52.124;5.196;2022-09-29T13:39:52;16.50;99.90
20732;DHT22;10527;52.124;5.196;2022-09-29T13:45:34;16.20;99.90
20732;DHT22;10527;52.124;5.196;2022-09-29T13:50:56;16.00;99.90
20732;DHT22;10527;52.124;5.196;2022-09-29T13:53:34;16.00;99.90
20732;DHT22;10527;52.124;5.196;2022-09-29T14:01:37;16.00;99.90
20732;DHT22;10527;52.124;5.196;2022-09-29T14:08:06;16.10;99.90
20732;DHT22;10527;52.124;5.196;2022-09-29T14:11:03;16.20;99.90
20732;DHT22;10527;52.124;5.196;2022-09-29T14:14:02;16.20;99.90
20732;DHT22;10527;52.124;5.196;2022-09-29T14:17:33;16.20;99.90
20732;DHT22;10527;52.124;5.196;2022-09-29T14:22:51;16.30;99.90
20732;DHT22;10527;52.124;5.196;2022-09-29T14:25:28;16.30;99.90
20732;DHT22;10527;52.124;5.196;2022-09-29T14:28:09;16.20;99.90
20732;DHT22;10527;52.124;5.196;2022-09-29T14:30:46;16.40;99.90
20732;DHT22;10527;52.124;5.196;2022-09-29T14:33:40;16.40;99.90
20732;DHT22;10527;52.124;5.196;2022-09-29T14:36:15;16.50;99.90
20732;DHT22;10527;52.124;5.196;2022-09-29T14:38:54;16.40;99.90
20732;DHT22;10527;52.124;5.196;2022-09-29T14:41:47;16.40;99.90
20732;DHT22;10527;52.124;5.196;2022-09-29T14:44:25;16.40;99.90
20732;DHT22;10527;52.124;5.196;2022-09-29T14:54:10;16.20;99.90
20732;DHT22;10527;52.124;5.196;2022-09-29T14:57:22;16.20;99.90
20732;DHT22;10527;52.124;5.196;2022-09-29T15:00:19;16.30;99.90
20732;DHT22;10527;52.124;5.196;2022-09-29T15:02:59;16.30;99.90
20732;DHT22;10527;52.124;5.196;2022-09-29T15:05:47;16.40;99.90
20732;DHT22;10527;52.124;5.196;2022-09-29T15:08:58;16.20;99.90
20732;DHT22;10527;52.124;5.196;2022-09-29T15:11:52;16.40;99.90
20732;DHT22;10527;52.124;5.196;2022-09-29T15:14:26;16.60;99.90
20732;DHT22;10527;52.124;5.196;2022-09-29T15:19:48;16.80;99.90
20732;DHT22;10527;52.124;5.196;2022-09-29T15:25:53;16.80;99.90
20732;DHT22;10527;52.124;5.196;2022-09-29T15:28:30;16.70;99.90
20732;DHT22;10527;52.124;5.196;2022-09-29T15:31:02;17.00;99.90
20732;DHT22;10527;52.124;5.196;2022-09-29T15:33:39;17.00;99.90
20732;DHT22;10527;52.124;5.196;2022-09-29T15:36:27;17.00;99.90
20732;DHT22;10527;52.124;5.196;2022-09-29T15:39:03;17.10;99.90
20732;DHT22;10527;52.124;5.196;2022-09-29T15:41:33;17.00;99.90
20732;DHT22;10527;52.124;5.196;2022-09-29T15:44:01;16.90;99.90
20732;DHT22;10527;52.124;5.196;2022-09-29T15:46:55;16.90;99.90
20732;DHT22;10527;52.124;5.196;2022-09-29T15:49:27;17.10;99.90
20732;DHT22;10527;52.124;5.196;2022-09-29T15:51:58;17.10;99.90
20732;DHT22;10527;52.124;5.196;2022-09-29T15:54:36;17.00;99.90
20732;DHT22;10527;52.124;5.196;2022-09-29T15:57:08;17.10;99.90
20732;DHT22;10527;52.124;5.196;2022-09-29T16:03:23;16.70;99.90
20732;DHT22;10527;52.124;5.196;2022-09-29T16:06:02;16.70;99.90
20732;DHT22;10527;52.124;5.196;2022-09-29T16:08:42;16.80;99.90
20732;DHT22;10527;52.124;5.196;2022-09-29T16:11:35;16.70;99.90
20732;DHT22;10527;52.124;5.196;2022-09-29T16:14:25;16.70;99.90
20732;DHT22;10527;52.124;5.196;2022-09-29T16:16:53;16.90;99.90
20732;DHT22;10527;52.124;5.196;2022-09-29T16:19:28;16.90;99.90
20732;DHT22;10527;52.124;5.196;2022-09-29T16:22:02;16.90;99.90
20732;DHT22;10527;52.124;5.196;2022-09-29T16:24:34;16.90;99.90
20732;DHT22;10527;52.124;5.196;2022-09-29T16:27:04;16.80;99.90
20732;DHT22;10527;52.124;5.196;2022-09-29T16:29:40;16.70;99.90
20732;DHT22;10527;52.124;5.196;2022-09-29T16:32:35;16.40;99.90
20732;DHT22;10527;52.124;5.196;2022-09-29T16:38:29;16.40;99.90
20732;DHT22;10527;52.124;5.196;2022-09-29T16:44:23;16.30;99.90
20732;DHT22;10527;52.124;5.196;2022-09-29T16:47:03;16.30;99.90
20732;DHT22;10527;52.124;5.196;2022-09-29T16:50:05;16.20;99.90
20732;DHT22;10527;52.124;5.196;2022-09-29T16:52:46;16.00;99.90
20732;DHT22;10527;52.124;5.196;2022-09-29T17:00:25;15.70;99.90
20732;DHT22;10527;52.124;5.196;2022-09-29T17:02:54;15.60;99.90
20732;DHT22;10527;52.124;5.196;2022-09-29T17:05:24;15.50;99.90
20732;DHT22;10527;52.124;5.196;2022-09-29T17:07:59;15.50;99.90
20732;DHT22;10527;52.124;5.196;2022-09-29T17:10:27;15.40;99.90
20732;DHT22;10527;52.124;5.196;2022-09-29T17:12:54;15.40;99.90
20732;DHT22;10527;52.124;5.196;2022-09-29T17:15:24;15.30;99.90
20732;DHT22;10527;52.124;5.196;2022-09-29T17:17:51;15.30;99.90
20732;DHT22;10527;52.124;5.196;2022-09-29T17:20:22;15.30;99.90
20732;DHT22;10527;52.124;5.196;2022-09-29T17:22:56;15.20;99.90
20732;DHT22;10527;52.124;5.196;2022-09-29T17:25:25;15.10;99.90
20732;DHT22;10527;52.124;5.196;2022-09-29T17:27:52;15.10;99.90
20732;DHT22;10527;52.124;5.196;2022-09-29T17:30:40;15.00;99.90
20732;DHT22;10527;52.124;5.196;2022-09-29T17:33:14;14.90;99.90
20732;DHT22;10527;52.124;5.196;2022-09-29T17:35:49;14.90;99.90
20732;DHT22;10527;52.124;5.196;2022-09-29T17:38:21;14.80;99.90
20732;DHT22;10527;52.124;5.196;2022-09-29T17:41:03;14.80;99.90
20732;DHT22;10527;52.124;5.196;2022-09-29T17:43:35;14.60;99.90
20732;DHT22;10527;52.124;5.196;2022-09-29T17:46:01;14.60;99.90
20732;DHT22;10527;52.124;5.196;2022-09-29T17:48:30;14.40;99.90
20732;DHT22;10527;52.124;5.196;2022-09-29T17:50:59;14.40;99.90
20732;DHT22;10527;52.124;5.196;2022-09-29T17:53:25;14.30;99.90
20732;DHT22;10527;52.124;5.196;2022-09-29T17:55:55;14.20;99.90
20732;DHT22;10527;52.124;5.196;2022-09-29T17:58:23;14.20;99.90
20732;DHT22;10527;52.124;5.196;2022-09-29T18:00:52;14.10;99.90
20732;DHT22;10527;52.124;5.196;2022-09-29T18:03:23;14.10;99.90
20732;DHT22;10527;52.124;5.196;2022-09-29T18:05:54;14.00;99.90
20732;DHT22;10527;52.124;5.196;2022-09-29T18:08:28;14.00;99.90
20732;DHT22;10527;52.124;5.196;2022-09-29T18:10:57;14.00;99.90
20732;DHT22;10527;52.124;5.196;2022-09-29T18:13:28;13.90;99.90
20732;DHT22;10527;52.124;5.196;2022-09-29T18:15:58;13.80;99.90
20732;DHT22;10527;52.124;5.196;2022-09-29T18:18:26;13.80;99.90
20732;DHT22;10527;52.124;5.196;2022-09-29T18:20:53;13.80;99.90
20732;DHT22;10527;52.124;5.196;2022-09-29T18:23:20;13.70;99.90
20732;DHT22;10527;52.124;5.196;2022-09-29T18:25:53;13.70;99.90
20732;DHT22;10527;52.124;5.196;2022-09-29T18:28:21;13.60;99.90
20732;DHT22;10527;52.124;5.196;2022-09-29T18:30:49;13.60;99.90
20732;DHT22;10527;52.124;5.196;2022-09-29T18:33:20;13.50;99.90
20732;DHT22;10527;52.124;5.196;2022-09-29T18:35:51;13.40;99.90
20732;DHT22;10527;52.124;5.196;2022-09-29T18:38:19;13.40;99.90
20732;DHT22;10527;52.124;5.196;2022-09-29T18:40:47;13.40;99.90
20732;DHT22;10527;52.124;5.196;2022-09-29T18:43:16;13.40;99.90
20732;DHT22;10527;52.124;5.196;2022-09-29T18:45:43;13.40;99.90
20732;DHT22;10527;52.124;5.196;2022-09-29T18:48:14;13.40;99.90
20732;DHT22;10527;52.124;5.196;2022-09-29T18:50:46;13.40;99.90
20732;DHT22;10527;52.124;5.196;2022-09-29T18:53:17;13.40;99.90
20732;DHT22;10527;52.124;5.196;2022-09-29T18:55:45;13.40;99.90
20732;DHT22;10527;52.124;5.196;2022-09-29T18:58:34;13.40;99.90
20732;DHT22;10527;52.124;5.196;2022-09-29T19:01:01;13.20;99.90
20732;DHT22;10527;52.124;5.196;2022-09-29T19:03:28;13.20;99.90
20732;DHT22;10527;52.124;5.196;2022-09-29T19:05:56;13.00;99.90
20732;DHT22;10527;52.124;5.196;2022-09-29T19:08:23;13.00;99.90
20732;DHT22;10527;52.124;5.196;2022-09-29T19:10:53;13.00;99.90
20732;DHT22;10527;52.124;5.196;2022-09-29T19:13:23;12.90;99.90
20732;DHT22;10527;52.124;5.196;2022-09-29T19:15:56;12.80;99.90
20732;DHT22;10527;52.124;5.196;2022-09-29T19:18:24;12.80;99.90
20732;DHT22;10527;52.124;5.196;2022-09-29T19:20:54;12.90;99.90
20732;DHT22;10527;52.124;5.196;2022-09-29T19:23:24;12.80;99.90
20732;DHT22;10527;52.124;5.196;2022-09-29T19:25:53;12.80;99.90
20732;DHT22;10527;52.124;5.196;2022-09-29T19:28:23;12.80;99.90
20732;DHT22;10527;52.124;5.196;2022-09-29T19:30:53;12.80;99.90